sensor_id;sensor_type;location;lat;lon;timestamp;P1;durP1;ratioP1;P2;durP2;ratioP2
15637;SDS011;26604;53.596;10.042;2023-10-31T00:01:53;9.45;;;3.72;;
15637;SDS011;26604;53.596;10.042;2023-10-31T00:04:21;9.90;;;3.70;;
15637;SDS011;26604;53.596;10.042;2023-10-31T00:06:48;8.07;;;3.80;;
15637;SDS011;26604;53.596;10.042;2023-10-31T00:09:15;7.93;;;3.83;;
15637;SDS011;26604;53.596;10.042;2023-10-31T00:11:42;6.20;;;3.55;;
15637;SDS011;26604;53.596;10.042;2023-10-31T00:14:10;11.80;;;3.83;;
15637;SDS011;26604;53.596;10.042;2023-10-31T00:16:37;6.95;;;3.50;;
15637;SDS011;26604;53.596;10.042;2023-10-31T00:19:04;6.85;;;3.67;;
15637;SDS011;26604;53.596;10.042;2023-10-31T00:21:32;7.70;;;3.85;;
15637;SDS011;26604;53.596;10.042;2023-10-31T00:23:59;6.07;;;3.55;;
15637;SDS011;26604;53.596;10.042;2023-10-31T00:26:25;12.85;;;4.47;;
15637;SDS011;26604;53.596;10.042;2023-10-31T00:28:52;8.15;;;4.05;;
15637;SDS011;26604;53.596;10.042;2023-10-31T00:31:19;5.28;;;3.90;;
15637;SDS011;26604;53.596;10.042;2023-10-31T00:33:46;7.00;;;3.75;;
15637;SDS011;26604;53.596;10.042;2023-10-31T00:36:13;11.35;;;4.15;;
15637;SDS011;26604;53.596;10.042;2023-10-31T00:38:41;9.38;;;4.35;;
15637;SDS011;26604;53.596;10.042;2023-10-31T00:41:08;6.72;;;3.80;;
15637;SDS011;26604;53.596;10.042;2023-10-31T00:43:35;7.15;;;3.90;;
15637;SDS011;26604;53.596;10.042;2023-10-31T00:46:03;7.90;;;3.90;;
15637;SDS011;26604;53.596;10.042;2023-10-31T00:48:30;7.38;;;3.95;;
15637;SDS011;26604;53.596;10.042;2023-10-31T00:51:01;7.18;;;4.00;;
15637;SDS011;26604;53.596;10.042;2023-10-31T00:53:28;7.28;;;4.28;;
15637;SDS011;26604;53.596;10.042;2023-10-31T00:55:57;5.15;;;3.70;;
15637;SDS011;26604;53.596;10.042;2023-10-31T00:58:24;9.40;;;4.40;;
15637;SDS011;26604;53.596;10.042;2023-10-31T01:00:51;13.85;;;5.05;;
15637;SDS011;26604;53.596;10.042;2023-10-31T01:03:18;5.78;;;4.00;;
15637;SDS011;26604;53.596;10.042;2023-10-31T01:05:44;9.55;;;4.03;;
15637;SDS011;26604;53.596;10.042;2023-10-31T01:08:11;7.20;;;4.50;;
15637;SDS011;26604;53.596;10.042;2023-10-31T01:10:38;10.02;;;4.15;;
15637;SDS011;26604;53.596;10.042;2023-10-31T01:13:07;6.72;;;3.58;;
15637;SDS011;26604;53.596;10.042;2023-10-31T01:15:33;7.45;;;4.03;;
15637;SDS011;26604;53.596;10.042;2023-10-31T01:18:00;8.40;;;3.83;;
15637;SDS011;26604;53.596;10.042;2023-10-31T01:20:27;5.88;;;4.10;;
15637;SDS011;26604;53.596;10.042;2023-10-31T01:22:54;6.22;;;4.20;;
15637;SDS011;26604;53.596;10.042;2023-10-31T01:25:21;7.95;;;4.05;;
15637;SDS011;26604;53.596;10.042;2023-10-31T01:27:48;11.20;;;5.32;;
15637;SDS011;26604;53.596;10.042;2023-10-31T01:30:16;10.80;;;4.30;;
15637;SDS011;26604;53.596;10.042;2023-10-31T01:32:43;7.53;;;4.72;;
15637;SDS011;26604;53.596;10.042;2023-10-31T01:35:10;9.77;;;5.00;;
15637;SDS011;26604;53.596;10.042;2023-10-31T01:37:37;9.55;;;5.13;;
15637;SDS011;26604;53.596;10.042;2023-10-31T01:40:04;10.77;;;5.10;;
15637;SDS011;26604;53.596;10.042;2023-10-31T01:42:32;10.80;;;5.38;;
15637;SDS011;26604;53.596;10.042;2023-10-31T01:44:59;8.32;;;6.22;;
15637;SDS011;26604;53.596;10.042;2023-10-31T01:47:27;10.98;;;7.15;;
15637;SDS011;26604;53.596;10.042;2023-10-31T01:49:54;12.98;;;6.60;;
15637;SDS011;26604;53.596;10.042;2023-10-31T01:52:22;8.93;;;6.22;;
15637;SDS011;26604;53.596;10.042;2023-10-31T01:54:49;9.57;;;6.40;;
15637;SDS011;26604;53.596;10.042;2023-10-31T01:57:16;12.32;;;7.68;;
15637;SDS011;26604;53.596;10.042;2023-10-31T01:59:47;11.20;;;8.07;;
15637;SDS011;26604;53.596;10.042;2023-10-31T02:02:14;14.38;;;7.55;;
15637;SDS011;26604;53.596;10.042;2023-10-31T02:04:42;11.75;;;8.23;;
15637;SDS011;26604;53.596;10.042;2023-10-31T02:07:10;11.32;;;7.65;;
15637;SDS011;26604;53.596;10.042;2023-10-31T02:09:37;14.98;;;7.82;;
15637;SDS011;26604;53.596;10.042;2023-10-31T02:12:04;14.88;;;8.52;;
15637;SDS011;26604;53.596;10.042;2023-10-31T02:14:31;11.13;;;7.50;;
15637;SDS011;26604;53.596;10.042;2023-10-31T02:16:58;12.85;;;7.45;;
15637;SDS011;26604;53.596;10.042;2023-10-31T02:19:25;11.93;;;7.22;;
15637;SDS011;26604;53.596;10.042;2023-10-31T02:21:53;11.98;;;7.07;;
15637;SDS011;26604;53.596;10.042;2023-10-31T02:24:20;11.50;;;7.85;;
15637;SDS011;26604;53.596;10.042;2023-10-31T02:26:47;9.75;;;7.10;;
15637;SDS011;26604;53.596;10.042;2023-10-31T02:29:13;11.05;;;7.35;;
15637;SDS011;26604;53.596;10.042;2023-10-31T02:31:40;9.98;;;7.47;;
15637;SDS011;26604;53.596;10.042;2023-10-31T02:34:07;9.43;;;7.28;;
15637;SDS011;26604;53.596;10.042;2023-10-31T02:36:34;12.90;;;7.57;;
15637;SDS011;26604;53.596;10.042;2023-10-31T02:39:02;9.05;;;7.07;;
15637;SDS011;26604;53.596;10.042;2023-10-31T02:41:29;9.52;;;7.03;;
15637;SDS011;26604;53.596;10.042;2023-10-31T02:43:56;11.88;;;6.15;;
15637;SDS011;26604;53.596;10.042;2023-10-31T02:46:23;13.02;;;6.65;;
15637;SDS011;26604;53.596;10.042;2023-10-31T02:48:50;16.05;;;7.10;;
15637;SDS011;26604;53.596;10.042;2023-10-31T02:51:17;11.88;;;7.20;;
15637;SDS011;26604;53.596;10.042;2023-10-31T02:53:43;11.45;;;7.20;;
15637;SDS011;26604;53.596;10.042;2023-10-31T02:56:12;9.57;;;6.50;;
15637;SDS011;26604;53.596;10.042;2023-10-31T02:58:39;13.20;;;6.65;;
15637;SDS011;26604;53.596;10.042;2023-10-31T03:01:05;15.52;;;6.63;;
15637;SDS011;26604;53.596;10.042;2023-10-31T03:03:32;12.77;;;8.02;;
15637;SDS011;26604;53.596;10.042;2023-10-31T03:06:00;9.75;;;6.13;;
15637;SDS011;26604;53.596;10.042;2023-10-31T03:08:26;8.75;;;6.20;;
15637;SDS011;26604;53.596;10.042;2023-10-31T03:10:53;11.10;;;6.35;;
15637;SDS011;26604;53.596;10.042;2023-10-31T03:13:21;10.82;;;6.43;;
15637;SDS011;26604;53.596;10.042;2023-10-31T03:15:48;11.00;;;5.75;;
15637;SDS011;26604;53.596;10.042;2023-10-31T03:18:15;9.05;;;6.10;;
15637;SDS011;26604;53.596;10.042;2023-10-31T03:20:43;9.57;;;6.20;;
15637;SDS011;26604;53.596;10.042;2023-10-31T03:23:11;11.70;;;6.28;;
15637;SDS011;26604;53.596;10.042;2023-10-31T03:25:38;9.73;;;5.10;;
15637;SDS011;26604;53.596;10.042;2023-10-31T03:28:06;10.73;;;6.38;;
15637;SDS011;26604;53.596;10.042;2023-10-31T03:30:44;8.55;;;5.78;;
15637;SDS011;26604;53.596;10.042;2023-10-31T03:33:12;9.65;;;6.40;;
15637;SDS011;26604;53.596;10.042;2023-10-31T03:35:39;9.45;;;6.35;;
15637;SDS011;26604;53.596;10.042;2023-10-31T03:38:08;9.15;;;6.57;;
15637;SDS011;26604;53.596;10.042;2023-10-31T03:40:35;9.95;;;6.00;;
15637;SDS011;26604;53.596;10.042;2023-10-31T03:43:07;10.45;;;6.15;;
15637;SDS011;26604;53.596;10.042;2023-10-31T03:45:34;8.07;;;5.72;;
15637;SDS011;26604;53.596;10.042;2023-10-31T03:48:05;10.18;;;5.80;;
15637;SDS011;26604;53.596;10.042;2023-10-31T03:50:32;6.85;;;5.20;;
15637;SDS011;26604;53.596;10.042;2023-10-31T03:52:59;10.23;;;5.93;;
15637;SDS011;26604;53.596;10.042;2023-10-31T03:55:26;9.35;;;6.30;;
15637;SDS011;26604;53.596;10.042;2023-10-31T03:57:53;8.35;;;5.80;;
15637;SDS011;26604;53.596;10.042;2023-10-31T04:00:20;8.13;;;5.95;;
15637;SDS011;26604;53.596;10.042;2023-10-31T04:02:47;8.48;;;6.22;;
15637;SDS011;26604;53.596;10.042;2023-10-31T04:05:16;9.40;;;6.15;;
15637;SDS011;26604;53.596;10.042;2023-10-31T04:07:43;13.18;;;6.55;;
15637;SDS011;26604;53.596;10.042;2023-10-31T04:10:11;10.63;;;6.10;;
15637;SDS011;26604;53.596;10.042;2023-10-31T04:12:38;9.32;;;6.32;;
15637;SDS011;26604;53.596;10.042;2023-10-31T04:15:06;8.82;;;6.43;;
15637;SDS011;26604;53.596;10.042;2023-10-31T04:17:33;11.65;;;6.60;;
15637;SDS011;26604;53.596;10.042;2023-10-31T04:20:00;11.48;;;6.50;;
15637;SDS011;26604;53.596;10.042;2023-10-31T04:22:29;11.07;;;6.60;;
15637;SDS011;26604;53.596;10.042;2023-10-31T04:24:56;7.70;;;6.35;;
15637;SDS011;26604;53.596;10.042;2023-10-31T04:27:22;11.43;;;6.55;;
15637;SDS011;26604;53.596;10.042;2023-10-31T04:29:49;9.02;;;5.95;;
15637;SDS011;26604;53.596;10.042;2023-10-31T04:32:16;8.15;;;5.55;;
15637;SDS011;26604;53.596;10.042;2023-10-31T04:34:43;10.60;;;6.57;;
15637;SDS011;26604;53.596;10.042;2023-10-31T04:37:10;12.20;;;6.65;;
15637;SDS011;26604;53.596;10.042;2023-10-31T04:39:38;9.85;;;5.65;;
15637;SDS011;26604;53.596;10.042;2023-10-31T04:42:05;14.07;;;6.47;;
15637;SDS011;26604;53.596;10.042;2023-10-31T04:44:32;9.38;;;5.97;;
15637;SDS011;26604;53.596;10.042;2023-10-31T04:46:59;8.88;;;5.80;;
15637;SDS011;26604;53.596;10.042;2023-10-31T04:49:25;11.23;;;6.07;;
15637;SDS011;26604;53.596;10.042;2023-10-31T04:51:52;10.90;;;6.57;;
15637;SDS011;26604;53.596;10.042;2023-10-31T04:54:19;10.70;;;6.50;;
15637;SDS011;26604;53.596;10.042;2023-10-31T04:56:48;11.38;;;5.53;;
15637;SDS011;26604;53.596;10.042;2023-10-31T04:59:15;14.18;;;5.93;;
15637;SDS011;26604;53.596;10.042;2023-10-31T05:01:47;7.47;;;5.75;;
15637;SDS011;26604;53.596;10.042;2023-10-31T05:04:14;7.63;;;5.35;;
15637;SDS011;26604;53.596;10.042;2023-10-31T05:06:42;7.95;;;5.15;;
15637;SDS011;26604;53.596;10.042;2023-10-31T05:09:09;8.93;;;5.35;;
15637;SDS011;26604;53.596;10.042;2023-10-31T05:11:36;7.75;;;5.15;;
15637;SDS011;26604;53.596;10.042;2023-10-31T05:14:05;11.23;;;5.72;;
15637;SDS011;26604;53.596;10.042;2023-10-31T05:16:38;7.38;;;4.82;;
15637;SDS011;26604;53.596;10.042;2023-10-31T05:19:05;10.70;;;5.32;;
15637;SDS011;26604;53.596;10.042;2023-10-31T05:21:32;6.68;;;4.95;;
15637;SDS011;26604;53.596;10.042;2023-10-31T05:23:59;9.40;;;5.80;;
15637;SDS011;26604;53.596;10.042;2023-10-31T05:26:26;7.97;;;5.45;;
15637;SDS011;26604;53.596;10.042;2023-10-31T05:28:54;7.80;;;5.40;;
15637;SDS011;26604;53.596;10.042;2023-10-31T05:31:23;7.93;;;5.72;;
15637;SDS011;26604;53.596;10.042;2023-10-31T05:33:50;8.50;;;5.20;;
15637;SDS011;26604;53.596;10.042;2023-10-31T05:36:18;8.27;;;5.68;;
15637;SDS011;26604;53.596;10.042;2023-10-31T05:38:45;13.32;;;6.30;;
15637;SDS011;26604;53.596;10.042;2023-10-31T05:41:13;7.60;;;5.70;;
15637;SDS011;26604;53.596;10.042;2023-10-31T05:43:40;10.60;;;6.13;;
15637;SDS011;26604;53.596;10.042;2023-10-31T05:46:07;8.00;;;5.82;;
15637;SDS011;26604;53.596;10.042;2023-10-31T05:48:37;9.77;;;6.18;;
15637;SDS011;26604;53.596;10.042;2023-10-31T05:51:04;10.07;;;6.78;;
15637;SDS011;26604;53.596;10.042;2023-10-31T05:53:37;10.25;;;6.28;;
15637;SDS011;26604;53.596;10.042;2023-10-31T05:56:05;11.63;;;6.50;;
15637;SDS011;26604;53.596;10.042;2023-10-31T05:58:33;9.85;;;6.68;;
15637;SDS011;26604;53.596;10.042;2023-10-31T06:01:00;10.20;;;6.85;;
15637;SDS011;26604;53.596;10.042;2023-10-31T06:03:27;9.88;;;6.40;;
15637;SDS011;26604;53.596;10.042;2023-10-31T06:05:55;11.85;;;7.38;;
15637;SDS011;26604;53.596;10.042;2023-10-31T06:08:21;10.10;;;6.93;;
15637;SDS011;26604;53.596;10.042;2023-10-31T06:10:49;11.52;;;7.32;;
15637;SDS011;26604;53.596;10.042;2023-10-31T06:13:16;14.45;;;8.75;;
15637;SDS011;26604;53.596;10.042;2023-10-31T06:15:43;13.23;;;8.50;;
15637;SDS011;26604;53.596;10.042;2023-10-31T06:18:10;13.38;;;8.05;;
15637;SDS011;26604;53.596;10.042;2023-10-31T06:20:38;14.73;;;8.48;;
15637;SDS011;26604;53.596;10.042;2023-10-31T06:23:06;12.57;;;8.43;;
15637;SDS011;26604;53.596;10.042;2023-10-31T06:25:33;11.05;;;8.13;;
15637;SDS011;26604;53.596;10.042;2023-10-31T06:28:00;12.13;;;8.68;;
15637;SDS011;26604;53.596;10.042;2023-10-31T06:30:26;14.80;;;9.05;;
15637;SDS011;26604;53.596;10.042;2023-10-31T06:32:53;16.10;;;9.80;;
15637;SDS011;26604;53.596;10.042;2023-10-31T06:35:20;15.20;;;8.82;;
15637;SDS011;26604;53.596;10.042;2023-10-31T06:37:49;14.00;;;9.05;;
15637;SDS011;26604;53.596;10.042;2023-10-31T06:40:18;14.55;;;9.15;;
15637;SDS011;26604;53.596;10.042;2023-10-31T06:42:45;13.88;;;9.15;;
15637;SDS011;26604;53.596;10.042;2023-10-31T06:45:12;11.63;;;8.65;;
15637;SDS011;26604;53.596;10.042;2023-10-31T06:47:39;14.30;;;9.85;;
15637;SDS011;26604;53.596;10.042;2023-10-31T06:50:07;16.42;;;8.75;;
15637;SDS011;26604;53.596;10.042;2023-10-31T06:52:35;13.27;;;9.35;;
15637;SDS011;26604;53.596;10.042;2023-10-31T06:55:02;13.65;;;9.68;;
15637;SDS011;26604;53.596;10.042;2023-10-31T06:57:30;14.32;;;9.68;;
15637;SDS011;26604;53.596;10.042;2023-10-31T06:59:57;15.77;;;9.98;;
15637;SDS011;26604;53.596;10.042;2023-10-31T07:02:24;15.13;;;8.82;;
15637;SDS011;26604;53.596;10.042;2023-10-31T07:04:51;13.02;;;8.63;;
15637;SDS011;26604;53.596;10.042;2023-10-31T07:07:18;16.08;;;9.57;;
15637;SDS011;26604;53.596;10.042;2023-10-31T07:09:44;18.33;;;8.60;;
15637;SDS011;26604;53.596;10.042;2023-10-31T07:12:11;20.33;;;8.77;;
15637;SDS011;26604;53.596;10.042;2023-10-31T07:14:39;16.17;;;8.10;;
15637;SDS011;26604;53.596;10.042;2023-10-31T07:17:06;15.80;;;7.82;;
15637;SDS011;26604;53.596;10.042;2023-10-31T07:19:33;9.60;;;6.15;;
15637;SDS011;26604;53.596;10.042;2023-10-31T07:22:00;7.70;;;5.03;;
15637;SDS011;26604;53.596;10.042;2023-10-31T07:24:27;5.80;;;4.60;;
15637;SDS011;26604;53.596;10.042;2023-10-31T07:26:54;5.57;;;3.80;;
15637;SDS011;26604;53.596;10.042;2023-10-31T07:29:21;4.80;;;3.88;;
15637;SDS011;26604;53.596;10.042;2023-10-31T07:31:49;7.45;;;4.38;;
15637;SDS011;26604;53.596;10.042;2023-10-31T07:34:16;6.85;;;4.90;;
15637;SDS011;26604;53.596;10.042;2023-10-31T07:36:43;7.13;;;5.10;;
15637;SDS011;26604;53.596;10.042;2023-10-31T07:39:10;10.45;;;5.78;;
15637;SDS011;26604;53.596;10.042;2023-10-31T07:41:37;9.02;;;5.85;;
15637;SDS011;26604;53.596;10.042;2023-10-31T07:44:04;10.27;;;6.82;;
15637;SDS011;26604;53.596;10.042;2023-10-31T07:46:32;11.02;;;7.03;;
15637;SDS011;26604;53.596;10.042;2023-10-31T07:49:01;12.38;;;6.95;;
15637;SDS011;26604;53.596;10.042;2023-10-31T07:51:28;11.20;;;7.45;;
15637;SDS011;26604;53.596;10.042;2023-10-31T07:53:54;12.48;;;7.88;;
15637;SDS011;26604;53.596;10.042;2023-10-31T07:56:23;13.15;;;7.47;;
15637;SDS011;26604;53.596;10.042;2023-10-31T07:58:50;12.13;;;7.25;;
15637;SDS011;26604;53.596;10.042;2023-10-31T08:01:17;11.23;;;6.97;;
15637;SDS011;26604;53.596;10.042;2023-10-31T08:03:45;8.35;;;6.50;;
15637;SDS011;26604;53.596;10.042;2023-10-31T08:06:13;8.63;;;6.25;;
15637;SDS011;26604;53.596;10.042;2023-10-31T08:08:40;7.78;;;5.38;;
15637;SDS011;26604;53.596;10.042;2023-10-31T08:11:07;5.15;;;3.95;;
15637;SDS011;26604;53.596;10.042;2023-10-31T08:13:35;4.93;;;1.27;;
15637;SDS011;26604;53.596;10.042;2023-10-31T08:16:02;1.25;;;0.70;;
15637;SDS011;26604;53.596;10.042;2023-10-31T08:18:30;1.42;;;0.77;;
15637;SDS011;26604;53.596;10.042;2023-10-31T08:20:56;0.88;;;0.60;;
15637;SDS011;26604;53.596;10.042;2023-10-31T08:23:25;0.65;;;0.50;;
15637;SDS011;26604;53.596;10.042;2023-10-31T08:25:52;1.75;;;0.70;;
15637;SDS011;26604;53.596;10.042;2023-10-31T08:28:19;4.07;;;0.60;;
15637;SDS011;26604;53.596;10.042;2023-10-31T08:30:45;2.08;;;0.60;;
15637;SDS011;26604;53.596;10.042;2023-10-31T08:33:13;0.55;;;0.47;;
15637;SDS011;26604;53.596;10.042;2023-10-31T08:35:40;0.65;;;0.45;;
15637;SDS011;26604;53.596;10.042;2023-10-31T08:38:07;0.38;;;0.38;;
15637;SDS011;26604;53.596;10.042;2023-10-31T08:40:36;0.95;;;0.55;;
15637;SDS011;26604;53.596;10.042;2023-10-31T08:43:03;1.02;;;0.52;;
15637;SDS011;26604;53.596;10.042;2023-10-31T08:45:31;0.50;;;0.40;;
15637;SDS011;26604;53.596;10.042;2023-10-31T08:47:58;1.50;;;0.75;;
15637;SDS011;26604;53.596;10.042;2023-10-31T08:50:25;0.52;;;0.50;;
15637;SDS011;26604;53.596;10.042;2023-10-31T08:52:54;0.32;;;0.20;;
15637;SDS011;26604;53.596;10.042;2023-10-31T08:55:21;1.35;;;0.40;;
15637;SDS011;26604;53.596;10.042;2023-10-31T08:57:49;0.88;;;0.50;;
15637;SDS011;26604;53.596;10.042;2023-10-31T09:00:17;0.57;;;0.30;;
15637;SDS011;26604;53.596;10.042;2023-10-31T09:02:44;0.80;;;0.47;;
15637;SDS011;26604;53.596;10.042;2023-10-31T09:05:11;0.30;;;0.30;;
15637;SDS011;26604;53.596;10.042;2023-10-31T09:07:38;1.65;;;0.50;;
15637;SDS011;26604;53.596;10.042;2023-10-31T09:10:06;1.95;;;0.35;;
15637;SDS011;26604;53.596;10.042;2023-10-31T09:12:33;0.45;;;0.38;;
15637;SDS011;26604;53.596;10.042;2023-10-31T09:15:01;0.68;;;0.40;;
15637;SDS011;26604;53.596;10.042;2023-10-31T09:17:28;3.08;;;0.40;;
15637;SDS011;26604;53.596;10.042;2023-10-31T09:19:55;0.32;;;0.30;;
15637;SDS011;26604;53.596;10.042;2023-10-31T09:22:24;0.77;;;0.32;;
15637;SDS011;26604;53.596;10.042;2023-10-31T09:24:51;0.50;;;0.40;;
15637;SDS011;26604;53.596;10.042;2023-10-31T09:27:17;0.43;;;0.43;;
15637;SDS011;26604;53.596;10.042;2023-10-31T09:29:44;0.68;;;0.50;;
15637;SDS011;26604;53.596;10.042;2023-10-31T09:32:14;0.40;;;0.40;;
15637;SDS011;26604;53.596;10.042;2023-10-31T09:34:41;2.22;;;0.45;;
15637;SDS011;26604;53.596;10.042;2023-10-31T09:37:08;2.28;;;0.40;;
15637;SDS011;26604;53.596;10.042;2023-10-31T09:39:35;1.65;;;0.40;;
15637;SDS011;26604;53.596;10.042;2023-10-31T09:42:02;2.40;;;0.50;;
15637;SDS011;26604;53.596;10.042;2023-10-31T09:44:30;0.70;;;0.60;;
15637;SDS011;26604;53.596;10.042;2023-10-31T09:46:56;0.65;;;0.35;;
15637;SDS011;26604;53.596;10.042;2023-10-31T09:49:24;0.40;;;0.32;;
15637;SDS011;26604;53.596;10.042;2023-10-31T09:51:51;0.32;;;0.32;;
15637;SDS011;26604;53.596;10.042;2023-10-31T09:54:18;0.98;;;0.38;;
15637;SDS011;26604;53.596;10.042;2023-10-31T09:56:46;0.20;;;0.20;;
15637;SDS011;26604;53.596;10.042;2023-10-31T09:59:13;0.40;;;0.30;;
15637;SDS011;26604;53.596;10.042;2023-10-31T10:01:41;0.30;;;0.22;;
15637;SDS011;26604;53.596;10.042;2023-10-31T10:04:08;0.70;;;0.40;;
15637;SDS011;26604;53.596;10.042;2023-10-31T10:06:38;0.40;;;0.30;;
15637;SDS011;26604;53.596;10.042;2023-10-31T10:09:06;0.55;;;0.22;;
15637;SDS011;26604;53.596;10.042;2023-10-31T10:11:33;0.73;;;0.40;;
15637;SDS011;26604;53.596;10.042;2023-10-31T10:14:01;0.80;;;0.30;;
15637;SDS011;26604;53.596;10.042;2023-10-31T10:16:28;1.48;;;0.40;;
15637;SDS011;26604;53.596;10.042;2023-10-31T10:18:56;1.40;;;0.73;;
15637;SDS011;26604;53.596;10.042;2023-10-31T10:21:23;0.90;;;0.43;;
15637;SDS011;26604;53.596;10.042;2023-10-31T10:23:52;0.68;;;0.30;;
15637;SDS011;26604;53.596;10.042;2023-10-31T10:26:19;2.08;;;0.60;;
15637;SDS011;26604;53.596;10.042;2023-10-31T10:28:50;1.10;;;0.60;;
15637;SDS011;26604;53.596;10.042;2023-10-31T10:31:17;0.55;;;0.40;;
15637;SDS011;26604;53.596;10.042;2023-10-31T10:33:45;2.75;;;0.60;;
15637;SDS011;26604;53.596;10.042;2023-10-31T10:36:12;1.17;;;0.70;;
15637;SDS011;26604;53.596;10.042;2023-10-31T10:38:41;4.45;;;0.70;;
15637;SDS011;26604;53.596;10.042;2023-10-31T10:41:12;1.25;;;0.60;;
15637;SDS011;26604;53.596;10.042;2023-10-31T10:49:54;5.05;;;0.70;;
15637;SDS011;26604;53.596;10.042;2023-10-31T10:52:27;1.05;;;0.60;;
15637;SDS011;26604;53.596;10.042;2023-10-31T10:55:04;0.85;;;0.60;;
15637;SDS011;26604;53.596;10.042;2023-10-31T10:57:41;0.88;;;0.68;;
15637;SDS011;26604;53.596;10.042;2023-10-31T11:00:14;1.77;;;0.63;;
15637;SDS011;26604;53.596;10.042;2023-10-31T11:02:41;1.83;;;0.40;;
15637;SDS011;26604;53.596;10.042;2023-10-31T11:05:10;1.67;;;0.40;;
15637;SDS011;26604;53.596;10.042;2023-10-31T11:07:38;0.77;;;0.60;;
15637;SDS011;26604;53.596;10.042;2023-10-31T11:10:06;1.13;;;0.55;;
15637;SDS011;26604;53.596;10.042;2023-10-31T11:12:34;2.28;;;0.55;;
15637;SDS011;26604;53.596;10.042;2023-10-31T11:15:05;2.55;;;0.70;;
15637;SDS011;26604;53.596;10.042;2023-10-31T11:17:35;1.63;;;0.77;;
15637;SDS011;26604;53.596;10.042;2023-10-31T11:20:07;2.30;;;0.65;;
15637;SDS011;26604;53.596;10.042;2023-10-31T11:22:39;3.67;;;0.90;;
15637;SDS011;26604;53.596;10.042;2023-10-31T11:25:07;1.60;;;0.80;;
15637;SDS011;26604;53.596;10.042;2023-10-31T11:27:35;2.83;;;1.00;;
15637;SDS011;26604;53.596;10.042;2023-10-31T11:30:06;3.00;;;0.90;;
15637;SDS011;26604;53.596;10.042;2023-10-31T11:32:34;2.03;;;1.10;;
15637;SDS011;26604;53.596;10.042;2023-10-31T11:35:01;3.03;;;0.90;;
15637;SDS011;26604;53.596;10.042;2023-10-31T11:37:31;2.28;;;0.98;;
15637;SDS011;26604;53.596;10.042;2023-10-31T11:40:15;2.45;;;1.08;;
15637;SDS011;26604;53.596;10.042;2023-10-31T11:42:47;1.30;;;0.90;;
15637;SDS011;26604;53.596;10.042;2023-10-31T11:45:26;1.45;;;0.80;;
15637;SDS011;26604;53.596;10.042;2023-10-31T11:47:54;3.30;;;0.82;;
15637;SDS011;26604;53.596;10.042;2023-10-31T11:50:21;1.50;;;0.90;;
15637;SDS011;26604;53.596;10.042;2023-10-31T11:55:42;1.00;;;0.85;;
15637;SDS011;26604;53.596;10.042;2023-10-31T11:58:16;1.30;;;0.80;;
15637;SDS011;26604;53.596;10.042;2023-10-31T12:00:46;3.97;;;1.20;;
15637;SDS011;26604;53.596;10.042;2023-10-31T12:03:14;2.78;;;1.65;;
15637;SDS011;26604;53.596;10.042;2023-10-31T12:05:50;2.50;;;1.10;;
15637;SDS011;26604;53.596;10.042;2023-10-31T12:08:24;2.75;;;1.30;;
15637;SDS011;26604;53.596;10.042;2023-10-31T12:11:02;2.45;;;1.20;;
15637;SDS011;26604;53.596;10.042;2023-10-31T12:13:30;2.65;;;1.17;;
15637;SDS011;26604;53.596;10.042;2023-10-31T12:15:58;2.13;;;1.35;;
15637;SDS011;26604;53.596;10.042;2023-10-31T12:18:26;1.83;;;1.20;;
15637;SDS011;26604;53.596;10.042;2023-10-31T12:20:53;1.75;;;0.90;;
15637;SDS011;26604;53.596;10.042;2023-10-31T12:23:20;3.75;;;1.00;;
15637;SDS011;26604;53.596;10.042;2023-10-31T12:25:48;0.70;;;0.70;;
15637;SDS011;26604;53.596;10.042;2023-10-31T12:28:18;1.58;;;0.68;;
15637;SDS011;26604;53.596;10.042;2023-10-31T12:30:45;0.95;;;0.90;;
15637;SDS011;26604;53.596;10.042;2023-10-31T12:33:14;1.50;;;0.63;;
15637;SDS011;26604;53.596;10.042;2023-10-31T12:35:42;1.45;;;0.60;;
15637;SDS011;26604;53.596;10.042;2023-10-31T12:38:10;0.98;;;0.50;;
15637;SDS011;26604;53.596;10.042;2023-10-31T12:40:38;1.45;;;0.75;;
15637;SDS011;26604;53.596;10.042;2023-10-31T12:43:07;1.55;;;0.47;;
15637;SDS011;26604;53.596;10.042;2023-10-31T12:45:35;2.42;;;0.43;;
15637;SDS011;26604;53.596;10.042;2023-10-31T12:48:02;0.90;;;0.43;;
15637;SDS011;26604;53.596;10.042;2023-10-31T12:50:31;0.73;;;0.30;;
15637;SDS011;26604;53.596;10.042;2023-10-31T12:52:59;1.33;;;0.60;;
15637;SDS011;26604;53.596;10.042;2023-10-31T12:55:28;1.77;;;0.40;;
15637;SDS011;26604;53.596;10.042;2023-10-31T12:57:56;0.60;;;0.45;;
15637;SDS011;26604;53.596;10.042;2023-10-31T13:00:29;0.82;;;0.43;;
15637;SDS011;26604;53.596;10.042;2023-10-31T13:03:01;0.65;;;0.40;;
15637;SDS011;26604;53.596;10.042;2023-10-31T13:05:29;0.90;;;0.50;;
15637;SDS011;26604;53.596;10.042;2023-10-31T13:07:59;0.75;;;0.43;;
15637;SDS011;26604;53.596;10.042;2023-10-31T13:10:28;1.58;;;0.60;;
15637;SDS011;26604;53.596;10.042;2023-10-31T13:12:57;1.63;;;0.52;;
15637;SDS011;26604;53.596;10.042;2023-10-31T13:15:24;0.88;;;0.40;;
15637;SDS011;26604;53.596;10.042;2023-10-31T13:17:51;1.63;;;0.65;;
15637;SDS011;26604;53.596;10.042;2023-10-31T13:20:18;1.02;;;0.47;;
15637;SDS011;26604;53.596;10.042;2023-10-31T13:22:48;1.65;;;0.50;;
15637;SDS011;26604;53.596;10.042;2023-10-31T13:25:15;0.70;;;0.40;;
15637;SDS011;26604;53.596;10.042;2023-10-31T13:27:43;0.90;;;0.40;;
15637;SDS011;26604;53.596;10.042;2023-10-31T13:30:15;0.73;;;0.30;;
15637;SDS011;26604;53.596;10.042;2023-10-31T13:32:43;2.05;;;0.73;;
15637;SDS011;26604;53.596;10.042;2023-10-31T13:35:10;0.90;;;0.43;;
15637;SDS011;26604;53.596;10.042;2023-10-31T13:37:39;0.50;;;0.40;;
15637;SDS011;26604;53.596;10.042;2023-10-31T13:40:07;3.25;;;1.17;;
15637;SDS011;26604;53.596;10.042;2023-10-31T13:42:35;1.35;;;1.17;;
15637;SDS011;26604;53.596;10.042;2023-10-31T13:45:02;2.15;;;0.80;;
15637;SDS011;26604;53.596;10.042;2023-10-31T13:47:29;1.20;;;0.90;;
15637;SDS011;26604;53.596;10.042;2023-10-31T13:49:56;1.40;;;0.90;;
15637;SDS011;26604;53.596;10.042;2023-10-31T13:52:24;1.85;;;0.90;;
15637;SDS011;26604;53.596;10.042;2023-10-31T13:54:51;1.02;;;0.90;;
15637;SDS011;26604;53.596;10.042;2023-10-31T13:57:19;0.90;;;0.70;;
15637;SDS011;26604;53.596;10.042;2023-10-31T13:59:47;2.30;;;0.90;;
15637;SDS011;26604;53.596;10.042;2023-10-31T14:02:13;1.33;;;0.75;;
15637;SDS011;26604;53.596;10.042;2023-10-31T14:04:42;1.30;;;0.60;;
15637;SDS011;26604;53.596;10.042;2023-10-31T14:07:09;3.22;;;1.00;;
15637;SDS011;26604;53.596;10.042;2023-10-31T14:09:41;1.00;;;0.80;;
15637;SDS011;26604;53.596;10.042;2023-10-31T14:12:08;0.98;;;0.80;;
15637;SDS011;26604;53.596;10.042;2023-10-31T14:14:36;0.75;;;0.63;;
15637;SDS011;26604;53.596;10.042;2023-10-31T14:17:03;1.67;;;1.00;;
15637;SDS011;26604;53.596;10.042;2023-10-31T14:19:30;0.85;;;0.75;;
15637;SDS011;26604;53.596;10.042;2023-10-31T14:21:57;2.13;;;1.13;;
15637;SDS011;26604;53.596;10.042;2023-10-31T14:24:25;2.65;;;0.93;;
15637;SDS011;26604;53.596;10.042;2023-10-31T14:26:53;1.13;;;1.02;;
15637;SDS011;26604;53.596;10.042;2023-10-31T14:29:20;1.90;;;1.05;;
15637;SDS011;26604;53.596;10.042;2023-10-31T14:31:49;1.10;;;0.75;;
15637;SDS011;26604;53.596;10.042;2023-10-31T14:34:16;1.58;;;0.60;;
15637;SDS011;26604;53.596;10.042;2023-10-31T14:36:43;0.90;;;0.68;;
15637;SDS011;26604;53.596;10.042;2023-10-31T14:39:10;1.10;;;0.75;;
15637;SDS011;26604;53.596;10.042;2023-10-31T14:41:37;1.38;;;1.00;;
15637;SDS011;26604;53.596;10.042;2023-10-31T14:44:04;1.60;;;1.23;;